地図

経路データ

SID SEASON NUMBER BASIN SUBBASIN NAME ISO_TIME NATURE LAT LON WMO_WIND WMO_PRES WMO_AGENCY TRACK_TYPE DIST2LAND LANDFALL IFLAG USA_AGENCY USA_ATCF_ID USA_LAT USA_LON USA_RECORD USA_STATUS USA_WIND USA_PRES USA_SSHS USA_R34_NE USA_R34_SE USA_R34_SW USA_R34_NW USA_R50_NE USA_R50_SE USA_R50_SW USA_R50_NW USA_R64_NE USA_R64_SE USA_R64_SW USA_R64_NW USA_POCI USA_ROCI USA_RMW USA_EYE TOKYO_LAT TOKYO_LON TOKYO_GRADE TOKYO_WIND TOKYO_PRES TOKYO_R50_DIR TOKYO_R50_LONG TOKYO_R50_SHORT TOKYO_R30_DIR TOKYO_R30_LONG TOKYO_R30_SHORT TOKYO_LAND CMA_LAT CMA_LON CMA_CAT CMA_WIND CMA_PRES HKO_LAT HKO_LON HKO_CAT HKO_WIND HKO_PRES NEWDELHI_LAT NEWDELHI_LON NEWDELHI_GRADE NEWDELHI_WIND NEWDELHI_PRES NEWDELHI_CI NEWDELHI_DP NEWDELHI_POCI REUNION_LAT REUNION_LON REUNION_TYPE REUNION_WIND REUNION_PRES REUNION_TNUM REUNION_CI REUNION_RMW REUNION_R34_NE REUNION_R34_SE REUNION_R34_SW REUNION_R34_NW REUNION_R50_NE REUNION_R50_SE REUNION_R50_SW REUNION_R50_NW REUNION_R64_NE REUNION_R64_SE REUNION_R64_SW REUNION_R64_NW BOM_LAT BOM_LON BOM_TYPE BOM_WIND BOM_PRES BOM_TNUM BOM_CI BOM_RMW BOM_R34_NE BOM_R34_SE BOM_R34_SW BOM_R34_NW BOM_R50_NE BOM_R50_SE BOM_R50_SW BOM_R50_NW BOM_R64_NE BOM_R64_SE BOM_R64_SW BOM_R64_NW BOM_ROCI BOM_POCI BOM_EYE BOM_POS_METHOD BOM_PRES_METHOD NADI_LAT NADI_LON NADI_CAT NADI_WIND NADI_PRES WELLINGTON_LAT WELLINGTON_LON WELLINGTON_WIND WELLINGTON_PRES DS824_LAT DS824_LON DS824_STAGE DS824_WIND DS824_PRES TD9636_LAT TD9636_LON TD9636_STAGE TD9636_WIND TD9636_PRES TD9635_LAT TD9635_LON TD9635_WIND TD9635_PRES TD9635_ROCI NEUMANN_LAT NEUMANN_LON NEUMANN_CLASS NEUMANN_WIND NEUMANN_PRES MLC_LAT MLC_LON MLC_CLASS MLC_WIND MLC_PRES USA_GUST BOM_GUST BOM_GUST_PER REUNION_GUST REUNION_GUST_PER USA_SEAHGT USA_SEARAD_NE USA_SEARAD_SE USA_SEARAD_SW USA_SEARAD_NW STORM_SPEED STORM_DIR
1909177N25276 1909 30 NA GM NOT_NAMED 1909-06-25 12:00:00 TS 25.0000 -84.0000 35 hurdat_atl main 242 242 O_____________ hurdat_atl AL021909 25.0000 -84.0000 TS 35 0 8 310
1909177N25276 1909 30 NA GM NOT_NAMED 1909-06-25 15:00:00 TS 25.2601 -84.3372 main 260 260 P_____________ AL021909 25.2601 -84.3372 TS 35 0 8 308
1909177N25276 1909 30 NA GM NOT_NAMED 1909-06-25 18:00:00 TS 25.5000 -84.7000 35 hurdat_atl main 279 279 O_____________ hurdat_atl AL021909 25.5000 -84.7000 TS 35 0 8 303
1909177N25276 1909 30 NA GM NOT_NAMED 1909-06-25 21:00:00 TS 25.7075 -85.1001 main 304 304 P_____________ AL021909 25.7075 -85.1001 TS 35 0 8 299
1909177N25276 1909 30 NA GM NOT_NAMED 1909-06-26 00:00:00 TS 25.9000 -85.5000 35 hurdat_atl main 327 327 O_____________ hurdat_atl AL021909 25.9000 -85.5000 TS 35 0 8 300
1909177N25276 1909 30 NA GM NOT_NAMED 1909-06-26 03:00:00 TS 26.0998 -85.8502 main 353 349 P_____________ AL021909 26.0998 -85.8502 TS 35 0 7 303
1909177N25276 1909 30 NA GM NOT_NAMED 1909-06-26 06:00:00 TS 26.3000 -86.2000 35 hurdat_atl main 372 371 O_____________ hurdat_atl AL021909 26.3000 -86.2000 TS 35 0 8 303
1909177N25276 1909 30 NA GM NOT_NAMED 1909-06-26 09:00:00 TS 26.5300 -86.5998 main 371 329 P_____________ AL021909 26.5300 -86.5998 TS 37 0 8 299
1909177N25276 1909 30 NA GM NOT_NAMED 1909-06-26 12:00:00 TS 26.7000 -87.0000 40 hurdat_atl main 329 311 O_____________ hurdat_atl AL021909 26.7000 -87.0000 TS 40 0 7 287
1909177N25276 1909 30 NA GM NOT_NAMED 1909-06-26 15:00:00 TS 26.7373 -87.3502 main 306 291 P_____________ AL021909 26.7373 -87.3502 TS 40 0 6 270
1909177N25276 1909 30 NA GM NOT_NAMED 1909-06-26 18:00:00 TS 26.7000 -87.7000 40 hurdat_atl main 291 274 O_____________ hurdat_atl AL021909 26.7000 -87.7000 TS 40 0 7 262
1909177N25276 1909 30 NA GM NOT_NAMED 1909-06-26 21:00:00 TS 26.6499 -88.0926 main 285 274 P_____________ AL021909 26.6499 -88.0926 TS 42 0 7 262
1909177N25276 1909 30 NA GM NOT_NAMED 1909-06-27 00:00:00 TS 26.6000 -88.5000 45 hurdat_atl main 274 268 O_____________ hurdat_atl AL021909 26.6000 -88.5000 TS 45 0 7 266
1909177N25276 1909 30 NA GM NOT_NAMED 1909-06-27 03:00:00 TS 26.5999 -88.8998 main 268 267 P_____________ AL021909 26.5999 -88.8998 TS 45 0 7 270
1909177N25276 1909 30 NA GM NOT_NAMED 1909-06-27 06:00:00 TS 26.6000 -89.3000 45 hurdat_atl main 268 268 O_____________ hurdat_atl AL021909 26.6000 -89.3000 TS 45 0 7 266
1909177N25276 1909 30 NA GM NOT_NAMED 1909-06-27 09:00:00 TS 26.5499 -89.7001 main 285 285 P_____________ AL021909 26.5499 -89.7001 TS 47 0 7 262
1909177N25276 1909 30 NA GM NOT_NAMED 1909-06-27 12:00:00 TS 26.5000 -90.1000 50 hurdat_atl main 290 290 O_____________ hurdat_atl AL021909 26.5000 -90.1000 TS 50 0 7 266
1909177N25276 1909 30 NA GM NOT_NAMED 1909-06-27 15:00:00 TS 26.4999 -90.4998 main 290 290 P_____________ AL021909 26.4999 -90.4998 TS 50 0 7 270
1909177N25276 1909 30 NA GM NOT_NAMED 1909-06-27 18:00:00 TS 26.5000 -90.9000 50 hurdat_atl main 290 290 O_____________ hurdat_atl AL021909 26.5000 -90.9000 TS 50 0 7 266
1909177N25276 1909 30 NA GM NOT_NAMED 1909-06-27 21:00:00 TS 26.4499 -91.3001 main 304 304 P_____________ AL021909 26.4499 -91.3001 TS 50 0 7 262
1909177N25276 1909 30 NA GM NOT_NAMED 1909-06-28 00:00:00 TS 26.4000 -91.7000 50 hurdat_atl main 311 311 O_____________ hurdat_atl AL021909 26.4000 -91.7000 TS 50 0 7 266
1909177N25276 1909 30 NA GM NOT_NAMED 1909-06-28 03:00:00 TS 26.3999 -92.0998 main 323 323 P_____________ AL021909 26.3999 -92.0998 TS 50 0 7 270
1909177N25276 1909 30 NA GM NOT_NAMED 1909-06-28 06:00:00 TS 26.4000 -92.5000 50 hurdat_atl main 340 340 O_____________ hurdat_atl AL021909 26.4000 -92.5000 TS 50 0 7 266
1909177N25276 1909 30 NA GM NOT_NAMED 1909-06-28 09:00:00 TS 26.3499 -92.9001 main 362 354 P_____________ AL021909 26.3499 -92.9001 TS 50 0 7 262
1909177N25276 1909 30 NA GM NOT_NAMED 1909-06-28 12:00:00 TS 26.3000 -93.3000 50 hurdat_atl main 354 335 O_____________ hurdat_atl AL021909 26.3000 -93.3000 TS 50 0 7 266
1909177N25276 1909 30 NA GM NOT_NAMED 1909-06-28 15:00:00 TS 26.2999 -93.6999 main 335 301 P_____________ AL021909 26.2999 -93.6999 TS 52 0 7 270
1909177N25276 1909 30 NA GM NOT_NAMED 1909-06-28 18:00:00 TS 26.3000 -94.1000 55 hurdat_atl main 301 261 O_____________ hurdat_atl AL021909 26.3000 -94.1000 TS 55 0 7 266
1909177N25276 1909 30 NA GM NOT_NAMED 1909-06-28 21:00:00 TS 26.2499 -94.5001 main 260 220 P_____________ AL021909 26.2499 -94.5001 TS 60 0 7 262
1909177N25276 1909 30 NA GM NOT_NAMED 1909-06-29 00:00:00 TS 26.2000 -94.9000 65 hurdat_atl main 220 180 O_____________ hurdat_atl AL021909 26.2000 -94.9000 HU 65 1 7 266
1909177N25276 1909 30 NA GM NOT_NAMED 1909-06-29 03:00:00 TS 26.1999 -95.2999 main 180 141 P_____________ AL021909 26.1999 -95.2999 HU 70 1 7 270
1909177N25276 1909 30 NA GM NOT_NAMED 1909-06-29 06:00:00 TS 26.2000 -95.7000 75 hurdat_atl main 141 102 O_____________ hurdat_atl AL021909 26.2000 -95.7000 HU 75 1 7 266
1909177N25276 1909 30 NA GM NOT_NAMED 1909-06-29 09:00:00 TS 26.1490 -96.0968 main 100 60 P_____________ AL021909 26.1490 -96.0968 HU 80 1 7 262
1909177N25276 1909 30 NA GM NOT_NAMED 1909-06-29 12:00:00 TS 26.1000 -96.5000 85 hurdat_atl main 60 22 O_____________ hurdat_atl AL021909 26.1000 -96.5000 HU 85 2 8 266
1909177N25276 1909 30 NA GM NOT_NAMED 1909-06-29 15:00:00 TS 26.0964 -96.9468 main 22 9 P_____________ AL021909 26.0964 -96.9468 HU 85 2 8 270
1909177N25276 1909 30 NA GM NOT_NAMED 1909-06-29 17:00:00 TS 26.1000 -97.2000 85 972 hurdat_atl main 9 0 O_____________ hurdat_atl AL021909 26.1000 -97.2000 L HU 85 972 2 6 271
1909177N25276 1909 30 NA GM NOT_NAMED 1909-06-29 18:00:00 TS 26.1000 -97.3000 85 972 hurdat_atl main 0 0 O_____________ hurdat_atl AL021909 26.1000 -97.3000 HU 85 972 2 6 264
1909177N25276 1909 30 NA NA NOT_NAMED 1909-06-29 21:00:00 TS 26.0575 -97.6426 main 0 0 P_____________ AL021909 26.0575 -97.6426 HU 67 1 6 261
1909177N25276 1909 30 NA NA NOT_NAMED 1909-06-30 00:00:00 TS 26.0000 -98.0000 50 hurdat_atl main 0 0 O_____________ hurdat_atl AL021909 26.0000 -98.0000 TS 50 0 6 264
1909177N25276 1909 30 NA NA NOT_NAMED 1909-06-30 03:00:00 TS 25.9925 -98.3224 main 0 0 P_____________ AL021909 25.9925 -98.3224 TS 42 0 5 270
1909177N25276 1909 30 NA NA NOT_NAMED 1909-06-30 06:00:00 TS 26.0000 -98.6000 35 hurdat_atl main 0 0 O_____________ hurdat_atl AL021909 26.0000 -98.6000 TS 35 0 4 271
1909177N25276 1909 30 NA NA NOT_NAMED 1909-06-30 09:00:00 TS 26.0025 -98.8175 main 0 0 P_____________ AL021909 26.0025 -98.8175 TS 32 -1 4 270
1909177N25276 1909 30 NA NA NOT_NAMED 1909-06-30 12:00:00 TS 26.0000 -99.0000 30 hurdat_atl main 0 O_____________ hurdat_atl AL021909 26.0000 -99.0000 TD 30 -1 3 269

IBTrACS Databaseについて

本データベースは、米国NOAAが公開する1842年以降の世界の熱帯低気圧のベストトラックデータアーカイブInternational Best Track Archive for Climate Stewardship (IBTrACS)を、ウェブで閲覧しやすい形式に変換したものです。

最終更新日:2021-11-26